sensor_id;sensor_type;location;lat;lon;timestamp;pressure;altitude;pressure_sealevel;temperature;humidity
11085;BME280;5596;46.826;8.650;2022-12-07T00:00:53;96272.38;;;1.55;100.00
11085;BME280;5596;46.826;8.650;2022-12-07T00:03:20;96272.69;;;1.60;100.00
11085;BME280;5596;46.826;8.650;2022-12-07T00:05:47;96286.69;;;1.54;100.00
11085;BME280;5596;46.826;8.650;2022-12-07T00:08:14;96284.56;;;1.49;100.00
11085;BME280;5596;46.826;8.650;2022-12-07T00:10:43;96292.56;;;1.49;100.00
11085;BME280;5596;46.826;8.650;2022-12-07T00:13:10;96289.22;;;1.47;100.00
11085;BME280;5596;46.826;8.650;2022-12-07T00:15:37;96299.53;;;1.50;100.00
11085;BME280;5596;46.826;8.650;2022-12-07T00:18:07;96287.91;;;1.51;100.00
11085;BME280;5596;46.826;8.650;2022-12-07T00:20:34;96284.06;;;1.46;100.00
11085;BME280;5596;46.826;8.650;2022-12-07T00:23:01;96286.41;;;1.49;100.00
11085;BME280;5596;46.826;8.650;2022-12-07T00:25:30;96295.88;;;1.51;100.00
11085;BME280;5596;46.826;8.650;2022-12-07T00:27:58;96293.84;;;1.53;100.00
11085;BME280;5596;46.826;8.650;2022-12-07T00:30:25;96287.34;;;1.56;100.00
11085;BME280;5596;46.826;8.650;2022-12-07T00:32:52;96291.00;;;1.55;100.00
11085;BME280;5596;46.826;8.650;2022-12-07T00:35:19;96289.34;;;1.54;100.00
11085;BME280;5596;46.826;8.650;2022-12-07T00:37:46;96290.38;;;1.53;100.00
11085;BME280;5596;46.826;8.650;2022-12-07T00:40:14;96272.97;;;1.42;100.00
11085;BME280;5596;46.826;8.650;2022-12-07T00:42:41;96287.41;;;1.48;100.00
11085;BME280;5596;46.826;8.650;2022-12-07T00:45:10;96286.56;;;1.47;100.00
11085;BME280;5596;46.826;8.650;2022-12-07T00:47:37;96260.34;;;1.36;100.00
11085;BME280;5596;46.826;8.650;2022-12-07T00:50:05;96269.00;;;1.38;100.00
11085;BME280;5596;46.826;8.650;2022-12-07T00:52:33;96280.13;;;1.42;100.00
11085;BME280;5596;46.826;8.650;2022-12-07T00:55:00;96280.78;;;1.44;100.00
11085;BME280;5596;46.826;8.650;2022-12-07T00:57:28;96265.34;;;1.39;100.00
11085;BME280;5596;46.826;8.650;2022-12-07T00:59:57;96267.13;;;1.47;100.00
11085;BME280;5596;46.826;8.650;2022-12-07T01:02:27;96267.47;;;1.44;100.00
11085;BME280;5596;46.826;8.650;2022-12-07T01:04:54;96277.25;;;1.51;100.00
11085;BME280;5596;46.826;8.650;2022-12-07T01:07:21;96272.09;;;1.50;100.00
11085;BME280;5596;46.826;8.650;2022-12-07T01:09:48;96274.75;;;1.50;100.00
11085;BME280;5596;46.826;8.650;2022-12-07T01:12:15;96269.59;;;1.48;100.00
11085;BME280;5596;46.826;8.650;2022-12-07T01:14:42;96270.94;;;1.52;100.00
11085;BME280;5596;46.826;8.650;2022-12-07T01:17:09;96276.53;;;1.58;100.00
11085;BME280;5596;46.826;8.650;2022-12-07T01:19:39;96275.88;;;1.56;100.00
11085;BME280;5596;46.826;8.650;2022-12-07T01:22:06;96286.84;;;1.61;100.00
11085;BME280;5596;46.826;8.650;2022-12-07T01:24:33;96288.28;;;1.63;100.00
11085;BME280;5596;46.826;8.650;2022-12-07T01:27:00;96287.13;;;1.66;100.00
11085;BME280;5596;46.826;8.650;2022-12-07T01:29:27;96295.78;;;1.68;100.00
11085;BME280;5596;46.826;8.650;2022-12-07T01:31:54;96288.78;;;1.67;100.00
11085;BME280;5596;46.826;8.650;2022-12-07T01:34:22;96285.13;;;1.68;100.00
11085;BME280;5596;46.826;8.650;2022-12-07T01:36:50;96291.09;;;1.70;100.00
11085;BME280;5596;46.826;8.650;2022-12-07T01:39:17;96286.59;;;1.70;100.00
11085;BME280;5596;46.826;8.650;2022-12-07T01:41:44;96287.41;;;1.71;100.00
11085;BME280;5596;46.826;8.650;2022-12-07T01:44:20;96282.75;;;1.73;100.00
11085;BME280;5596;46.826;8.650;2022-12-07T01:46:48;96289.38;;;1.77;100.00
11085;BME280;5596;46.826;8.650;2022-12-07T01:49:27;96278.41;;;1.72;100.00
11085;BME280;5596;46.826;8.650;2022-12-07T01:52:00;96290.91;;;1.71;100.00
11085;BME280;5596;46.826;8.650;2022-12-07T01:54:28;96286.78;;;1.69;100.00
11085;BME280;5596;46.826;8.650;2022-12-07T01:56:56;96282.28;;;1.69;100.00
11085;BME280;5596;46.826;8.650;2022-12-07T01:59:25;96284.13;;;1.69;100.00
11085;BME280;5596;46.826;8.650;2022-12-07T02:01:54;96287.63;;;1.69;100.00
11085;BME280;5596;46.826;8.650;2022-12-07T02:04:22;96285.94;;;1.68;100.00
11085;BME280;5596;46.826;8.650;2022-12-07T02:06:50;96288.44;;;1.70;100.00
11085;BME280;5596;46.826;8.650;2022-12-07T02:09:19;96281.09;;;1.72;100.00
11085;BME280;5596;46.826;8.650;2022-12-07T02:11:46;96284.41;;;1.74;100.00
11085;BME280;5596;46.826;8.650;2022-12-07T02:14:13;96277.91;;;1.76;100.00
11085;BME280;5596;46.826;8.650;2022-12-07T02:16:50;96276.25;;;1.75;100.00
11085;BME280;5596;46.826;8.650;2022-12-07T02:19:45;96279.38;;;1.79;100.00
11085;BME280;5596;46.826;8.650;2022-12-07T02:22:35;96281.34;;;1.85;100.00
11085;BME280;5596;46.826;8.650;2022-12-07T02:25:09;96274.25;;;1.77;100.00
11085;BME280;5596;46.826;8.650;2022-12-07T02:27:46;96276.00;;;1.85;100.00
11085;BME280;5596;46.826;8.650;2022-12-07T02:30:17;96279.69;;;1.84;100.00
11085;BME280;5596;46.826;8.650;2022-12-07T02:32:51;96279.69;;;1.84;100.00
11085;BME280;5596;46.826;8.650;2022-12-07T02:35:25;96278.03;;;1.83;100.00
11085;BME280;5596;46.826;8.650;2022-12-07T02:38:03;96277.13;;;1.90;100.00
11085;BME280;5596;46.826;8.650;2022-12-07T02:40:38;96275.47;;;1.89;100.00
11085;BME280;5596;46.826;8.650;2022-12-07T02:43:10;96271.28;;;1.95;100.00
11085;BME280;5596;46.826;8.650;2022-12-07T02:45:41;96267.59;;;1.96;100.00
11085;BME280;5596;46.826;8.650;2022-12-07T02:48:13;96272.41;;;2.01;100.00
11085;BME280;5596;46.826;8.650;2022-12-07T02:50:44;96264.41;;;2.01;100.00
11085;BME280;5596;46.826;8.650;2022-12-07T02:53:29;96271.22;;;2.03;100.00
11085;BME280;5596;46.826;8.650;2022-12-07T02:55:58;96269.19;;;2.05;100.00
11085;BME280;5596;46.826;8.650;2022-12-07T02:58:33;96269.84;;;2.07;100.00
11085;BME280;5596;46.826;8.650;2022-12-07T03:01:14;96268.19;;;2.06;100.00
11085;BME280;5596;46.826;8.650;2022-12-07T03:03:55;96277.00;;;2.07;100.00
11085;BME280;5596;46.826;8.650;2022-12-07T03:06:29;96269.00;;;2.07;100.00
11085;BME280;5596;46.826;8.650;2022-12-07T03:09:08;96268.19;;;2.06;100.00
11085;BME280;5596;46.826;8.650;2022-12-07T03:11:44;96264.06;;;2.04;100.00
11085;BME280;5596;46.826;8.650;2022-12-07T03:14:17;96259.91;;;2.01;100.00
11085;BME280;5596;46.826;8.650;2022-12-07T03:16:52;96263.22;;;2.03;100.00
11085;BME280;5596;46.826;8.650;2022-12-07T03:19:22;96252.56;;;2.03;100.00
11085;BME280;5596;46.826;8.650;2022-12-07T03:21:54;96251.75;;;2.03;100.00
11085;BME280;5596;46.826;8.650;2022-12-07T03:24:26;96252.09;;;2.00;100.00
11085;BME280;5596;46.826;8.650;2022-12-07T03:27:01;96250.91;;;2.02;100.00
11085;BME280;5596;46.826;8.650;2022-12-07T03:29:32;96243.94;;;2.01;100.00
11085;BME280;5596;46.826;8.650;2022-12-07T03:32:06;96251.91;;;2.01;100.00
11085;BME280;5596;46.826;8.650;2022-12-07T03:34:39;96249.25;;;2.01;100.00
11085;BME280;5596;46.826;8.650;2022-12-07T03:37:12;96239.34;;;1.95;100.00
11085;BME280;5596;46.826;8.650;2022-12-07T03:39:57;96251.63;;;1.96;100.00
11085;BME280;5596;46.826;8.650;2022-12-07T03:42:26;96239.34;;;1.95;100.00
11085;BME280;5596;46.826;8.650;2022-12-07T03:44:53;96251.63;;;1.96;100.00
11085;BME280;5596;46.826;8.650;2022-12-07T03:47:27;96235.19;;;1.93;100.00
11085;BME280;5596;46.826;8.650;2022-12-07T03:49:59;96236.00;;;1.93;100.00
11085;BME280;5596;46.826;8.650;2022-12-07T03:52:33;96240.41;;;1.86;100.00
11085;BME280;5596;46.826;8.650;2022-12-07T03:55:08;96237.25;;;1.82;100.00
11085;BME280;5596;46.826;8.650;2022-12-07T03:57:38;96231.28;;;1.80;100.00
11085;BME280;5596;46.826;8.650;2022-12-07T04:00:10;96230.16;;;1.75;100.00
11085;BME280;5596;46.826;8.650;2022-12-07T04:02:42;96230.69;;;1.70;100.00
11085;BME280;5596;46.826;8.650;2022-12-07T04:05:10;96228.41;;;1.67;100.00
11085;BME280;5596;46.826;8.650;2022-12-07T04:07:37;96220.09;;;1.62;100.00
11085;BME280;5596;46.826;8.650;2022-12-07T04:10:05;96217.34;;;1.56;100.00
11085;BME280;5596;46.826;8.650;2022-12-07T04:12:32;96225.19;;;1.49;100.00
11085;BME280;5596;46.826;8.650;2022-12-07T04:14:59;96227.53;;;1.52;100.00
11085;BME280;5596;46.826;8.650;2022-12-07T04:17:27;96217.44;;;1.39;100.00
11085;BME280;5596;46.826;8.650;2022-12-07T04:19:56;96217.00;;;1.36;100.00
11085;BME280;5596;46.826;8.650;2022-12-07T04:22:23;96228.44;;;1.36;100.00
11085;BME280;5596;46.826;8.650;2022-12-07T04:24:50;96227.16;;;1.32;100.00
11085;BME280;5596;46.826;8.650;2022-12-07T04:27:17;96224.03;;;1.21;100.00
11085;BME280;5596;46.826;8.650;2022-12-07T04:29:44;96215.00;;;1.07;100.00
11085;BME280;5596;46.826;8.650;2022-12-07T04:32:11;96219.19;;;1.01;100.00
11085;BME280;5596;46.826;8.650;2022-12-07T04:34:38;96206.06;;;1.00;100.00
11085;BME280;5596;46.826;8.650;2022-12-07T04:37:07;96208.34;;;1.03;100.00
11085;BME280;5596;46.826;8.650;2022-12-07T04:39:34;96221.53;;;0.96;100.00
11085;BME280;5596;46.826;8.650;2022-12-07T04:42:02;96212.28;;;0.84;100.00
11085;BME280;5596;46.826;8.650;2022-12-07T04:44:30;96223.94;;;0.83;100.00
11085;BME280;5596;46.826;8.650;2022-12-07T04:46:57;96227.44;;;0.75;100.00
11085;BME280;5596;46.826;8.650;2022-12-07T04:49:25;96235.88;;;0.79;100.00
11085;BME280;5596;46.826;8.650;2022-12-07T04:51:53;96215.19;;;0.66;100.00
11085;BME280;5596;46.826;8.650;2022-12-07T04:54:21;96227.78;;;0.72;100.00
11085;BME280;5596;46.826;8.650;2022-12-07T04:56:48;96232.78;;;0.67;100.00
11085;BME280;5596;46.826;8.650;2022-12-07T04:59:16;96233.13;;;0.64;100.00
11085;BME280;5596;46.826;8.650;2022-12-07T05:01:44;96230.97;;;0.60;100.00
11085;BME280;5596;46.826;8.650;2022-12-07T05:04:11;96241.09;;;0.64;100.00
11085;BME280;5596;46.826;8.650;2022-12-07T05:06:38;96228.31;;;0.60;100.00
11085;BME280;5596;46.826;8.650;2022-12-07T05:09:05;96240.09;;;0.65;100.00
11085;BME280;5596;46.826;8.650;2022-12-07T05:11:34;96235.13;;;0.62;100.00
11085;BME280;5596;46.826;8.650;2022-12-07T05:14:12;96241.44;;;0.61;100.00
11085;BME280;5596;46.826;8.650;2022-12-07T05:16:41;96244.13;;;0.53;100.00
11085;BME280;5596;46.826;8.650;2022-12-07T05:19:08;96242.66;;;0.51;100.00
11085;BME280;5596;46.826;8.650;2022-12-07T05:21:36;96242.97;;;0.48;100.00
11085;BME280;5596;46.826;8.650;2022-12-07T05:24:05;96249.44;;;0.53;100.00
11085;BME280;5596;46.826;8.650;2022-12-07T05:26:34;96251.25;;;0.53;100.00
11085;BME280;5596;46.826;8.650;2022-12-07T05:29:01;96239.34;;;0.41;100.00
11085;BME280;5596;46.826;8.650;2022-12-07T05:31:29;96244.97;;;0.46;100.00
11085;BME280;5596;46.826;8.650;2022-12-07T05:33:57;96247.78;;;0.44;100.00
11085;BME280;5596;46.826;8.650;2022-12-07T05:36:24;96245.69;;;0.31;100.00
11085;BME280;5596;46.826;8.650;2022-12-07T05:38:51;96256.78;;;0.27;100.00
11085;BME280;5596;46.826;8.650;2022-12-07T05:41:18;96247.53;;;0.15;100.00
11085;BME280;5596;46.826;8.650;2022-12-07T05:44:05;96250.19;;;0.23;100.00
11085;BME280;5596;46.826;8.650;2022-12-07T05:46:32;96251.66;;;0.33;100.00
11085;BME280;5596;46.826;8.650;2022-12-07T05:49:00;96250.16;;;0.31;100.00
11085;BME280;5596;46.826;8.650;2022-12-07T05:51:27;96253.47;;;0.33;100.00
11085;BME280;5596;46.826;8.650;2022-12-07T05:53:54;96250.97;;;0.40;100.00
11085;BME280;5596;46.826;8.650;2022-12-07T05:56:21;96264.69;;;0.51;100.00
11085;BME280;5596;46.826;8.650;2022-12-07T05:58:50;96254.28;;;0.42;100.00
11085;BME280;5596;46.826;8.650;2022-12-07T06:01:35;96258.25;;;0.46;100.00
11085;BME280;5596;46.826;8.650;2022-12-07T06:04:02;96260.22;;;0.52;100.00
11085;BME280;5596;46.826;8.650;2022-12-07T06:06:30;96258.91;;;0.56;100.00
11085;BME280;5596;46.826;8.650;2022-12-07T06:08:57;96262.06;;;0.59;100.00
11085;BME280;5596;46.826;8.650;2022-12-07T06:11:23;96249.75;;;0.58;100.00
11085;BME280;5596;46.826;8.650;2022-12-07T06:14:08;96248.91;;;0.66;100.00
11085;BME280;5596;46.826;8.650;2022-12-07T06:16:37;96245.06;;;0.68;100.00
11085;BME280;5596;46.826;8.650;2022-12-07T06:19:06;96253.69;;;0.70;100.00
11085;BME280;5596;46.826;8.650;2022-12-07T06:21:33;96254.69;;;0.69;100.00
11085;BME280;5596;46.826;8.650;2022-12-07T06:24:00;96252.03;;;0.69;100.00
11085;BME280;5596;46.826;8.650;2022-12-07T06:26:27;96248.75;;;0.67;100.00
11085;BME280;5596;46.826;8.650;2022-12-07T06:28:54;96254.38;;;0.64;100.00
11085;BME280;5596;46.826;8.650;2022-12-07T06:31:22;96255.91;;;0.59;100.00
11085;BME280;5596;46.826;8.650;2022-12-07T06:33:50;96250.09;;;0.55;100.00
11085;BME280;5596;46.826;8.650;2022-12-07T06:36:17;96251.91;;;0.55;100.00
11085;BME280;5596;46.826;8.650;2022-12-07T06:38:45;96240.00;;;0.43;100.00
11085;BME280;5596;46.826;8.650;2022-12-07T06:41:12;96259.06;;;0.54;100.00
11085;BME280;5596;46.826;8.650;2022-12-07T06:43:39;96236.00;;;0.47;100.00
11085;BME280;5596;46.826;8.650;2022-12-07T06:46:07;96258.72;;;0.57;100.00
11085;BME280;5596;46.826;8.650;2022-12-07T06:48:34;96255.75;;;0.52;100.00
11085;BME280;5596;46.826;8.650;2022-12-07T06:51:03;96259.72;;;0.56;100.00
11085;BME280;5596;46.826;8.650;2022-12-07T06:53:32;96252.88;;;0.62;100.00
11085;BME280;5596;46.826;8.650;2022-12-07T06:55:59;96249.75;;;0.58;100.00
11085;BME280;5596;46.826;8.650;2022-12-07T06:58:26;96249.06;;;0.64;100.00
11085;BME280;5596;46.826;8.650;2022-12-07T07:00:53;96242.06;;;0.71;100.00
11085;BME280;5596;46.826;8.650;2022-12-07T07:03:20;96251.19;;;0.69;100.00
11085;BME280;5596;46.826;8.650;2022-12-07T07:05:48;96239.75;;;0.68;100.00
11085;BME280;5596;46.826;8.650;2022-12-07T07:08:19;96228.16;;;0.61;100.00
11085;BME280;5596;46.826;8.650;2022-12-07T07:10:46;96249.56;;;0.68;100.00
11085;BME280;5596;46.826;8.650;2022-12-07T07:13:13;96254.88;;;0.68;100.00
11085;BME280;5596;46.826;8.650;2022-12-07T07:15:40;96238.78;;;0.61;100.00
11085;BME280;5596;46.826;8.650;2022-12-07T07:18:08;96255.69;;;0.68;100.00
11085;BME280;5596;46.826;8.650;2022-12-07T07:20:35;96261.50;;;0.72;100.00
11085;BME280;5596;46.826;8.650;2022-12-07T07:23:02;96268.59;;;0.80;100.00
11085;BME280;5596;46.826;8.650;2022-12-07T07:25:31;96252.38;;;0.74;100.00
11085;BME280;5596;46.826;8.650;2022-12-07T07:27:59;96265.09;;;0.87;100.00
11085;BME280;5596;46.826;8.650;2022-12-07T07:30:26;96251.50;;;0.82;100.00
11085;BME280;5596;46.826;8.650;2022-12-07T07:32:56;96269.25;;;0.90;100.00
11085;BME280;5596;46.826;8.650;2022-12-07T07:35:23;96267.59;;;0.89;100.00
11085;BME280;5596;46.826;8.650;2022-12-07T07:37:50;96253.00;;;0.85;100.00
11085;BME280;5596;46.826;8.650;2022-12-07T07:40:18;96266.75;;;0.88;100.00
11085;BME280;5596;46.826;8.650;2022-12-07T07:42:49;96252.66;;;0.80;100.00
11085;BME280;5596;46.826;8.650;2022-12-07T07:45:16;96270.25;;;0.89;100.00
11085;BME280;5596;46.826;8.650;2022-12-07T07:47:43;96267.91;;;0.86;100.00
11085;BME280;5596;46.826;8.650;2022-12-07T07:50:11;96273.59;;;0.83;100.00
11085;BME280;5596;46.826;8.650;2022-12-07T07:52:38;96277.59;;;0.79;100.00
11085;BME280;5596;46.826;8.650;2022-12-07T07:55:06;96281.09;;;0.71;100.00
11085;BME280;5596;46.826;8.650;2022-12-07T07:57:34;96277.97;;;0.67;100.00
11085;BME280;5596;46.826;8.650;2022-12-07T08:00:03;96281.63;;;0.66;100.00
11085;BME280;5596;46.826;8.650;2022-12-07T08:02:38;96283.91;;;0.69;100.00
11085;BME280;5596;46.826;8.650;2022-12-07T08:05:06;96279.94;;;0.73;100.00
11085;BME280;5596;46.826;8.650;2022-12-07T08:07:33;96283.28;;;0.67;100.00
11085;BME280;5596;46.826;8.650;2022-12-07T08:10:01;96279.00;;;0.58;100.00
11085;BME280;5596;46.826;8.650;2022-12-07T08:12:27;96282.78;;;0.64;100.00
11085;BME280;5596;46.826;8.650;2022-12-07T08:14:54;96285.75;;;0.69;100.00
11085;BME280;5596;46.826;8.650;2022-12-07T08:17:23;96290.56;;;0.73;100.00
11085;BME280;5596;46.826;8.650;2022-12-07T08:19:50;96290.22;;;0.77;100.00
11085;BME280;5596;46.826;8.650;2022-12-07T08:22:17;96287.56;;;0.77;100.00
11085;BME280;5596;46.826;8.650;2022-12-07T08:24:45;96287.19;;;0.88;100.00
11085;BME280;5596;46.826;8.650;2022-12-07T08:27:12;96288.03;;;0.88;100.00
11085;BME280;5596;46.826;8.650;2022-12-07T08:29:39;96277.72;;;0.85;100.00
11085;BME280;5596;46.826;8.650;2022-12-07T08:32:06;96287.53;;;0.93;100.00
11085;BME280;5596;46.826;8.650;2022-12-07T08:34:35;96288.34;;;0.93;100.00
11085;BME280;5596;46.826;8.650;2022-12-07T08:37:02;96289.16;;;0.94;100.00
11085;BME280;5596;46.826;8.650;2022-12-07T08:39:29;96287.03;;;0.89;100.00
11085;BME280;5596;46.826;8.650;2022-12-07T08:41:56;96287.06;;;0.81;100.00
11085;BME280;5596;46.826;8.650;2022-12-07T08:44:23;96272.97;;;0.72;100.00
11085;BME280;5596;46.826;8.650;2022-12-07T08:46:52;96278.38;;;0.87;100.00
11085;BME280;5596;46.826;8.650;2022-12-07T08:49:23;96287.16;;;0.96;100.00
11085;BME280;5596;46.826;8.650;2022-12-07T08:51:55;96291.78;;;1.10;100.00
11085;BME280;5596;46.826;8.650;2022-12-07T08:54:22;96293.72;;;1.16;100.00
11085;BME280;5596;46.826;8.650;2022-12-07T08:56:49;96283.75;;;1.18;100.00
11085;BME280;5596;46.826;8.650;2022-12-07T08:59:19;96290.38;;;1.22;100.00
11085;BME280;5596;46.826;8.650;2022-12-07T09:01:47;96289.03;;;1.26;100.00
11085;BME280;5596;46.826;8.650;2022-12-07T09:04:14;96280.00;;;1.35;100.00
11085;BME280;5596;46.826;8.650;2022-12-07T09:06:42;96295.22;;;1.49;100.00
11085;BME280;5596;46.826;8.650;2022-12-07T09:09:11;96300.78;;;1.63;100.00
11085;BME280;5596;46.826;8.650;2022-12-07T09:11:40;96299.78;;;1.64;100.00
11085;BME280;5596;46.826;8.650;2022-12-07T09:14:07;96292.78;;;1.63;100.00
11085;BME280;5596;46.826;8.650;2022-12-07T09:16:34;96285.69;;;1.55;100.00
11085;BME280;5596;46.826;8.650;2022-12-07T09:19:01;96294.81;;;1.61;100.00
11085;BME280;5596;46.826;8.650;2022-12-07T09:21:28;96305.59;;;1.67;100.00
11085;BME280;5596;46.826;8.650;2022-12-07T09:23:55;96299.44;;;1.67;100.00
11085;BME280;5596;46.826;8.650;2022-12-07T09:26:24;96299.56;;;1.73;100.00
11085;BME280;5596;46.826;8.650;2022-12-07T09:28:51;96295.09;;;1.66;100.00
11085;BME280;5596;46.826;8.650;2022-12-07T09:31:18;96298.38;;;1.76;100.00
11085;BME280;5596;46.826;8.650;2022-12-07T09:33:46;96291.06;;;1.78;100.00
11085;BME280;5596;46.826;8.650;2022-12-07T09:36:14;96280.84;;;1.81;100.00
11085;BME280;5596;46.826;8.650;2022-12-07T09:38:42;96266.44;;;1.76;100.00
11085;BME280;5596;46.826;8.650;2022-12-07T09:41:09;96281.16;;;1.86;100.00
11085;BME280;5596;46.826;8.650;2022-12-07T09:43:38;96289.44;;;1.92;100.00
11085;BME280;5596;46.826;8.650;2022-12-07T09:46:09;96291.50;;;2.04;100.00
11085;BME280;5596;46.826;8.650;2022-12-07T09:48:41;96282.97;;;2.09;100.00
11085;BME280;5596;46.826;8.650;2022-12-07T09:51:14;96286.41;;;2.17;100.00
11085;BME280;5596;46.826;8.650;2022-12-07T09:53:42;96274.00;;;2.24;100.00
11085;BME280;5596;46.826;8.650;2022-12-07T09:56:11;96282.31;;;2.30;100.00
11085;BME280;5596;46.826;8.650;2022-12-07T09:58:42;96281.59;;;2.36;100.00
11085;BME280;5596;46.826;8.650;2022-12-07T10:01:12;96266.03;;;2.39;100.00
11085;BME280;5596;46.826;8.650;2022-12-07T10:03:47;96273.84;;;2.41;100.00
11085;BME280;5596;46.826;8.650;2022-12-07T10:06:17;96267.91;;;2.53;100.00
11085;BME280;5596;46.826;8.650;2022-12-07T10:08:44;96259.53;;;2.56;100.00
11085;BME280;5596;46.826;8.650;2022-12-07T10:11:12;96263.59;;;2.67;100.00
11085;BME280;5596;46.826;8.650;2022-12-07T10:13:43;96258.91;;;2.69;100.00
11085;BME280;5596;46.826;8.650;2022-12-07T10:16:31;96264.06;;;2.85;100.00
11085;BME280;5596;46.826;8.650;2022-12-07T10:19:18;96258.06;;;2.98;100.00
11085;BME280;5596;46.826;8.650;2022-12-07T10:22:01;96243.06;;;3.12;100.00
11085;BME280;5596;46.826;8.650;2022-12-07T10:24:34;96252.69;;;3.27;100.00
11085;BME280;5596;46.826;8.650;2022-12-07T10:27:03;96252.94;;;3.47;100.00
11085;BME280;5596;46.826;8.650;2022-12-07T10:29:33;96250.38;;;3.39;100.00
11085;BME280;5596;46.826;8.650;2022-12-07T10:32:21;96251.81;;;3.56;100.00
11085;BME280;5596;46.826;8.650;2022-12-07T10:34:52;96247.25;;;3.71;100.00
11085;BME280;5596;46.826;8.650;2022-12-07T10:37:40;96251.16;;;3.75;100.00
11085;BME280;5596;46.826;8.650;2022-12-07T10:40:25;96239.59;;;3.68;99.19
11085;BME280;5596;46.826;8.650;2022-12-07T10:43:00;96244.16;;;3.74;98.37
11085;BME280;5596;46.826;8.650;2022-12-07T10:45:29;96231.78;;;3.67;98.94
11085;BME280;5596;46.826;8.650;2022-12-07T10:48:02;96237.25;;;3.80;100.00
11085;BME280;5596;46.826;8.650;2022-12-07T10:50:47;96235.34;;;3.95;99.32
11085;BME280;5596;46.826;8.650;2022-12-07T10:53:38;96217.69;;;4.01;99.08
11085;BME280;5596;46.826;8.650;2022-12-07T10:59:28;96212.06;;;4.38;96.93
11085;BME280;5596;46.826;8.650;2022-12-07T11:02:11;96216.19;;;4.41;96.51
11085;BME280;5596;46.826;8.650;2022-12-07T11:04:54;96214.72;;;4.38;96.45
11085;BME280;5596;46.826;8.650;2022-12-07T11:07:37;96215.41;;;4.47;97.33
11085;BME280;5596;46.826;8.650;2022-12-07T11:10:13;96196.59;;;4.34;97.76
11085;BME280;5596;46.826;8.650;2022-12-07T11:13:04;96199.94;;;4.42;97.72
11085;BME280;5596;46.826;8.650;2022-12-07T11:15:52;96206.00;;;4.57;96.17
11085;BME280;5596;46.826;8.650;2022-12-07T11:18:28;96195.63;;;4.76;95.31
11085;BME280;5596;46.826;8.650;2022-12-07T11:21:06;96194.38;;;4.72;94.06
11085;BME280;5596;46.826;8.650;2022-12-07T11:23:43;96191.78;;;4.91;92.79
11085;BME280;5596;46.826;8.650;2022-12-07T11:26:20;96198.22;;;5.04;92.70
11085;BME280;5596;46.826;8.650;2022-12-07T11:29:03;96192.50;;;5.20;91.47
11085;BME280;5596;46.826;8.650;2022-12-07T11:31:55;96184.75;;;5.31;88.94
11085;BME280;5596;46.826;8.650;2022-12-07T11:34:36;96187.03;;;5.48;91.66
11085;BME280;5596;46.826;8.650;2022-12-07T11:37:09;96183.59;;;5.60;90.94
11085;BME280;5596;46.826;8.650;2022-12-07T11:39:41;96183.25;;;6.03;90.84
11085;BME280;5596;46.826;8.650;2022-12-07T11:42:15;96174.34;;;5.76;91.10
11085;BME280;5596;46.826;8.650;2022-12-07T11:44:50;96160.75;;;5.97;90.36
11085;BME280;5596;46.826;8.650;2022-12-07T11:47:25;96156.38;;;5.44;92.31
11085;BME280;5596;46.826;8.650;2022-12-07T11:50:01;96155.38;;;4.90;94.45
11085;BME280;5596;46.826;8.650;2022-12-07T11:52:38;96150.41;;;4.87;97.88
11085;BME280;5596;46.826;8.650;2022-12-07T11:55:19;96148.22;;;4.56;100.00
11085;BME280;5596;46.826;8.650;2022-12-07T11:57:52;96137.69;;;4.48;100.00
11085;BME280;5596;46.826;8.650;2022-12-07T12:00:22;96133.50;;;4.39;100.00
11085;BME280;5596;46.826;8.650;2022-12-07T12:02:53;96145.84;;;4.40;100.00
11085;BME280;5596;46.826;8.650;2022-12-07T12:05:25;96132.31;;;4.14;100.00
11085;BME280;5596;46.826;8.650;2022-12-07T12:08:01;96141.19;;;4.21;100.00
11085;BME280;5596;46.826;8.650;2022-12-07T12:10:42;96140.09;;;4.09;100.00
11085;BME280;5596;46.826;8.650;2022-12-07T12:16:49;96129.69;;;3.93;100.00
11085;BME280;5596;46.826;8.650;2022-12-07T12:19:26;96122.84;;;3.84;100.00
11085;BME280;5596;46.826;8.650;2022-12-07T12:21:59;96130.66;;;3.57;100.00
11085;BME280;5596;46.826;8.650;2022-12-07T12:24:31;96127.44;;;3.68;100.00
11085;BME280;5596;46.826;8.650;2022-12-07T12:27:05;96120.56;;;3.80;100.00
11085;BME280;5596;46.826;8.650;2022-12-07T12:29:36;96123.47;;;3.86;100.00
11085;BME280;5596;46.826;8.650;2022-12-07T12:32:22;96118.06;;;3.72;100.00
11085;BME280;5596;46.826;8.650;2022-12-07T12:35:17;96117.59;;;3.69;100.00
11085;BME280;5596;46.826;8.650;2022-12-07T12:37:54;96117.78;;;3.67;100.00
11085;BME280;5596;46.826;8.650;2022-12-07T12:40:42;96107.66;;;3.56;100.00
11085;BME280;5596;46.826;8.650;2022-12-07T12:43:41;96104.84;;;3.64;100.00
11085;BME280;5596;46.826;8.650;2022-12-07T12:49:35;96109.03;;;3.73;100.00
11085;BME280;5596;46.826;8.650;2022-12-07T12:55:22;96107.22;;;3.80;100.00
11085;BME280;5596;46.826;8.650;2022-12-07T12:58:29;96105.53;;;3.73;100.00
11085;BME280;5596;46.826;8.650;2022-12-07T13:04:02;96105.88;;;3.91;100.00
11085;BME280;5596;46.826;8.650;2022-12-07T13:06:35;96091.06;;;3.89;100.00
11085;BME280;5596;46.826;8.650;2022-12-07T13:09:18;96092.28;;;3.93;100.00
11085;BME280;5596;46.826;8.650;2022-12-07T13:11:50;96090.38;;;4.08;100.00
11085;BME280;5596;46.826;8.650;2022-12-07T13:14:43;96079.44;;;4.03;100.00
11085;BME280;5596;46.826;8.650;2022-12-07T13:17:11;96087.06;;;4.06;100.00
11085;BME280;5596;46.826;8.650;2022-12-07T13:19:57;96079.34;;;3.90;100.00
11085;BME280;5596;46.826;8.650;2022-12-07T13:22:48;96079.06;;;3.78;100.00
11085;BME280;5596;46.826;8.650;2022-12-07T13:25:29;96078.56;;;3.68;100.00
11085;BME280;5596;46.826;8.650;2022-12-07T13:28:07;96073.97;;;3.55;100.00
11085;BME280;5596;46.826;8.650;2022-12-07T13:30:45;96064.66;;;3.51;100.00
11085;BME280;5596;46.826;8.650;2022-12-07T13:33:14;96064.25;;;3.48;100.00
11085;BME280;5596;46.826;8.650;2022-12-07T13:35:45;96067.25;;;3.38;100.00
11085;BME280;5596;46.826;8.650;2022-12-07T13:38:25;96047.09;;;3.35;100.00
11085;BME280;5596;46.826;8.650;2022-12-07T13:41:03;96055.94;;;3.36;100.00
11085;BME280;5596;46.826;8.650;2022-12-07T13:43:44;96046.66;;;3.32;100.00
11085;BME280;5596;46.826;8.650;2022-12-07T13:46:12;96058.09;;;3.47;100.00
11085;BME280;5596;46.826;8.650;2022-12-07T13:48:45;96057.31;;;3.53;100.00
11085;BME280;5596;46.826;8.650;2022-12-07T13:51:21;96062.81;;;3.52;100.00